KFEP

Albertus Airport

Freeport, Illinois, USA
METAR KFEP 212155Z AUTO 05010G16KT 10SM OVC007 17/17 A2980 RMK AO2 LTG DSNT S P0002 T01660165
Observed Flight Rules
Jun-21 @ 21:55 UTC (11 minutes ago) Instrument Flight Rules
Wind Visibility Clouds
50° at 10 knots
 Gusting to 16 knots
10 miles
  • Overcast at 700' AGL
Temperatures Readings Precipitation
Current 17°C / 63°F
Dewpoint 17°C / 63°F
Humidity 100%
Altimeter 29.8" Hg
Pressure 1009 hPa
Elevation 262
Current Rain 0.02
METAR KFEP 212155Z AUTO 05010G16KT 10SM OVC007 17/17 A2980 RMK AO2 LTG DSNT S P0002 T01660165
Observed Flight Rules
Jun-21 @ 21:55 UTC
(11 minutes ago)
IFR
Wind Visibility
50° at 10 knots
 Gusting to 16 knots
10 miles
Clouds
  • Overcast at 700' AGL
Temperature Dewpoint
17°C / 63°F 17°C / 63°F
Humidity Altimeter Pressure
100% 29.8" Hg 1009 hPa
Current Rain
0.02